createdAt,value
2022-11-07T00:01:26.023Z,9.37
2022-11-07T00:04:02.792Z,9.10
2022-11-07T00:06:31.433Z,9.00
2022-11-07T00:09:02.901Z,8.90
2022-11-07T00:11:42.765Z,8.83
2022-11-07T00:14:19.666Z,8.73
2022-11-07T00:16:56.767Z,8.70
2022-11-07T00:19:29.532Z,8.13
2022-11-07T00:21:57.828Z,8.27
2022-11-07T00:24:30.860Z,7.80
2022-11-07T00:27:02.885Z,7.57
2022-11-07T00:29:33.141Z,8.07
2022-11-07T00:32:02.173Z,7.97
2022-11-07T00:34:33.424Z,8.30
2022-11-07T00:37:04.819Z,7.50
2022-11-07T00:39:35.549Z,7.77
2022-11-07T00:42:06.393Z,8.07
2022-11-07T00:47:21.469Z,8.23
2022-11-07T00:49:51.384Z,9.13
2022-11-07T00:52:22.516Z,7.93
2022-11-07T00:54:52.824Z,8.00
2022-11-07T00:57:23.065Z,7.87
2022-11-07T01:08:01.207Z,8.40
2022-11-07T01:10:38.152Z,7.90
2022-11-07T01:13:07.937Z,7.80
2022-11-07T01:15:45.101Z,7.70
2022-11-07T01:18:22.249Z,7.00
2022-11-07T01:20:52.397Z,7.40
2022-11-07T01:23:25.368Z,8.00
2022-11-07T01:26:00.055Z,7.13
2022-11-07T01:31:13.280Z,7.60
2022-11-07T01:33:54.900Z,7.00
2022-11-07T01:36:31.201Z,7.17
2022-11-07T01:38:58.423Z,6.57
2022-11-07T01:41:34.207Z,7.10
2022-11-07T01:44:18.465Z,6.87
2022-11-07T01:46:51.043Z,6.53
2022-11-07T01:49:45.488Z,6.27
2022-11-07T01:52:21.318Z,6.30
2022-11-07T01:55:11.600Z,6.50
2022-11-07T01:58:04.319Z,6.70
2022-11-07T02:00:38.093Z,6.97
2022-11-07T02:03:18.035Z,7.10
2022-11-07T02:05:59.448Z,7.30
2022-11-07T02:08:30.136Z,7.23
2022-11-07T02:11:09.679Z,7.00
2022-11-07T02:13:40.756Z,7.13
2022-11-07T02:16:09.187Z,7.23
2022-11-07T02:18:40.252Z,7.17
2022-11-07T02:21:49.146Z,7.90
2022-11-07T02:24:39.003Z,6.60
2022-11-07T02:27:16.065Z,6.73
2022-11-07T02:29:49.280Z,7.07
2022-11-07T02:32:18.554Z,8.20
2022-11-07T02:35:00.391Z,6.83
2022-11-07T02:37:38.386Z,6.73
2022-11-07T02:40:09.539Z,6.83
2022-11-07T02:42:45.535Z,6.63
2022-11-07T02:45:23.851Z,7.00
2022-11-07T02:47:52.854Z,6.93
2022-11-07T02:50:23.895Z,6.73
2022-11-07T02:52:51.802Z,7.23
2022-11-07T02:58:05.033Z,6.90
2022-11-07T03:00:33.999Z,6.63
2022-11-07T03:03:03.302Z,6.90
2022-11-07T03:05:33.666Z,6.80
2022-11-07T03:08:06.308Z,7.00
2022-11-07T03:10:37.487Z,7.13
2022-11-07T03:16:02.217Z,6.83
2022-11-07T03:18:31.941Z,6.40
2022-11-07T03:23:45.590Z,6.03
2022-11-07T03:28:57.040Z,6.20
2022-11-07T03:34:13.977Z,6.20
2022-11-07T03:36:45.112Z,6.30
2022-11-07T03:41:58.159Z,6.20
2022-11-07T03:44:28.877Z,5.90
2022-11-07T03:46:56.809Z,6.00
2022-11-07T03:52:09.170Z,5.63
2022-11-07T03:54:39.850Z,5.90
2022-11-07T03:57:16.607Z,5.80
2022-11-07T03:59:47.420Z,6.00
2022-11-07T04:02:14.819Z,6.00
2022-11-07T04:04:43.609Z,6.10
2022-11-07T04:12:59.064Z,6.10
2022-11-07T04:15:53.494Z,5.60
2022-11-07T04:18:32.195Z,5.90
2022-11-07T04:21:00.657Z,5.87
2022-11-07T04:23:50.653Z,5.30
2022-11-07T04:26:40.065Z,5.60
2022-11-07T04:29:22.453Z,5.13
2022-11-07T04:31:52.863Z,5.87
2022-11-07T04:37:12.567Z,5.17
2022-11-07T04:39:42.127Z,5.63
2022-11-07T04:44:59.237Z,5.27
2022-11-07T04:50:18.920Z,5.07
2022-11-07T04:52:49.903Z,5.60
2022-11-07T04:55:27.312Z,5.50
2022-11-07T04:57:57.936Z,5.90
2022-11-07T05:00:29.618Z,5.63
2022-11-07T05:03:00.223Z,6.53
2022-11-07T05:08:15.221Z,6.00
2022-11-07T05:10:45.715Z,5.77
2022-11-07T05:13:23.723Z,6.07
2022-11-07T05:15:52.455Z,5.90
2022-11-07T05:18:30.900Z,6.63
2022-11-07T05:21:02.622Z,6.20
2022-11-07T05:23:32.533Z,6.27
2022-11-07T05:31:23.756Z,7.10
2022-11-07T05:33:53.972Z,6.70
2022-11-07T05:36:28.563Z,6.50
2022-11-07T05:39:01.221Z,6.93
2022-11-07T05:41:29.702Z,7.90
2022-11-07T05:44:01.304Z,8.03
2022-11-07T05:46:29.834Z,7.50
2022-11-07T05:49:04.554Z,7.40
2022-11-07T05:51:33.801Z,7.53
2022-11-07T05:54:14.352Z,7.57
2022-11-07T05:56:46.014Z,7.77
2022-11-07T05:59:16.550Z,9.80
2022-11-07T06:04:31.591Z,28.57
2022-11-07T06:06:59.909Z,22.20
2022-11-07T06:09:28.320Z,12.40
2022-11-07T06:11:58.921Z,9.97
2022-11-07T06:14:29.439Z,10.80
2022-11-07T06:17:01.554Z,9.43
2022-11-07T06:19:30.051Z,8.60
2022-11-07T06:22:05.772Z,8.37
2022-11-07T06:24:45.375Z,8.47
2022-11-07T06:27:15.914Z,8.93
2022-11-07T06:29:44.834Z,8.83
2022-11-07T06:32:14.333Z,9.20
2022-11-07T06:34:44.881Z,8.53
2022-11-07T06:37:15.421Z,8.23
2022-11-07T06:39:44.908Z,8.80
2022-11-07T06:45:16.985Z,8.83
2022-11-07T06:50:30.298Z,7.77
2022-11-07T06:53:07.181Z,8.67
2022-11-07T06:55:39.270Z,8.17
2022-11-07T06:58:13.948Z,8.10
2022-11-07T07:00:43.048Z,8.13
2022-11-07T07:03:13.281Z,8.03
2022-11-07T07:05:43.884Z,7.47
2022-11-07T07:08:20.795Z,7.03
2022-11-07T07:10:52.823Z,6.70
2022-11-07T07:13:24.251Z,6.90
2022-11-07T07:15:55.786Z,6.77
2022-11-07T07:18:26.313Z,6.97
2022-11-07T07:21:14.889Z,7.27
2022-11-07T07:23:56.183Z,7.33
2022-11-07T07:26:34.050Z,7.63
2022-11-07T07:29:04.309Z,6.67
2022-11-07T07:34:25.106Z,7.90
2022-11-07T07:36:59.834Z,8.03
2022-11-07T07:39:31.025Z,7.90
2022-11-07T07:42:02.178Z,7.17
2022-11-07T07:44:36.047Z,7.03
2022-11-07T07:47:11.093Z,7.23
2022-11-07T07:49:38.869Z,7.70
2022-11-07T07:54:55.170Z,6.90
2022-11-07T08:00:34.961Z,7.90
2022-11-07T08:03:21.494Z,7.73
2022-11-07T08:05:57.871Z,7.90
2022-11-07T08:08:26.156Z,7.90
2022-11-07T08:10:57.483Z,7.83
2022-11-07T08:13:27.686Z,7.70
2022-11-07T08:16:04.525Z,8.33
2022-11-07T08:18:34.977Z,8.00
2022-11-07T08:21:06.879Z,8.30
2022-11-07T08:23:46.171Z,7.33
2022-11-07T08:26:13.596Z,7.73
2022-11-07T08:31:23.900Z,8.03
2022-11-07T08:33:51.611Z,8.17
2022-11-07T08:36:19.787Z,8.97
2022-11-07T08:38:47.791Z,9.30
2022-11-07T08:41:20.911Z,8.87
2022-11-07T08:43:49.910Z,8.70
2022-11-07T08:46:18.318Z,7.90
2022-11-07T08:48:53.504Z,7.00
2022-11-07T08:51:20.549Z,7.57
2022-11-07T08:53:48.653Z,7.77
2022-11-07T08:56:19.841Z,8.63
2022-11-07T09:01:29.736Z,7.67
2022-11-07T09:03:58.421Z,7.30
2022-11-07T09:06:32.255Z,7.70
2022-11-07T09:09:11.596Z,7.33
2022-11-07T09:11:45.941Z,7.83
2022-11-07T09:14:17.308Z,7.47
2022-11-07T09:16:47.982Z,7.50
2022-11-07T09:19:16.668Z,7.40
2022-11-07T09:21:48.203Z,7.20
2022-11-07T09:24:19.688Z,6.80
2022-11-07T09:26:50.134Z,5.40
2022-11-07T09:29:20.920Z,4.80
2022-11-07T09:34:33.856Z,3.97
2022-11-07T09:37:03.730Z,4.33
2022-11-07T09:39:36.204Z,3.53
2022-11-07T09:42:46.460Z,3.27
2022-11-07T09:45:17.177Z,2.70
2022-11-07T09:48:12.662Z,2.40
2022-11-07T09:50:43.757Z,2.40
2022-11-07T09:53:36.726Z,2.43
2022-11-07T09:56:07.982Z,2.30
2022-11-07T09:58:55.843Z,1.97
2022-11-07T10:01:32.579Z,2.10
2022-11-07T10:07:08.382Z,2.10
2022-11-07T10:09:54.657Z,1.80
2022-11-07T10:12:49.935Z,1.90
2022-11-07T10:15:25.426Z,1.67
2022-11-07T10:18:35.556Z,1.87
2022-11-07T10:21:42.029Z,1.43
2022-11-07T10:24:35.420Z,1.83
2022-11-07T10:27:08.016Z,1.70
2022-11-07T10:29:54.293Z,1.83
2022-11-07T10:32:58.630Z,1.90
2022-11-07T10:35:39.516Z,1.80
2022-11-07T10:38:16.517Z,1.70
2022-11-07T10:40:44.922Z,1.30
2022-11-07T10:43:23.360Z,1.63
2022-11-07T10:45:52.901Z,1.43
2022-11-07T10:48:21.721Z,1.20
2022-11-07T10:51:01.612Z,1.40
2022-11-07T10:56:15.689Z,1.33
2022-11-07T10:58:46.918Z,1.20
2022-11-07T11:01:25.491Z,1.20
2022-11-07T11:06:47.677Z,1.20
2022-11-07T11:09:22.727Z,1.00
2022-11-07T11:11:51.840Z,1.20
2022-11-07T11:17:13.160Z,0.90
2022-11-07T11:19:48.627Z,1.10
2022-11-07T11:22:19.281Z,1.10
2022-11-07T11:25:00.333Z,1.20
2022-11-07T11:27:35.575Z,1.00
2022-11-07T11:30:31.465Z,1.07
2022-11-07T11:33:31.061Z,1.00
2022-11-07T11:36:15.876Z,1.03
2022-11-07T11:38:55.721Z,1.10
2022-11-07T11:41:53.372Z,0.90
2022-11-07T11:44:43.035Z,1.00
2022-11-07T11:47:41.068Z,1.53
2022-11-07T11:50:22.517Z,3.50
2022-11-07T11:53:00.255Z,1.57
2022-11-07T11:55:41.561Z,2.60
2022-11-07T11:58:35.677Z,2.87
2022-11-07T12:01:41.934Z,4.00
2022-11-07T12:04:43.771Z,4.90
2022-11-07T12:07:35.661Z,2.53
2022-11-07T12:10:30.587Z,4.30
2022-11-07T12:13:28.563Z,2.00
2022-11-07T12:16:30.333Z,3.77
2022-11-07T12:19:09.434Z,2.23
2022-11-07T12:22:05.350Z,12.37
2022-11-07T12:25:19.991Z,7.20
2022-11-07T12:28:26.407Z,1.53
2022-11-07T12:31:24.260Z,1.90
2022-11-07T12:34:36.034Z,3.17
2022-11-07T12:37:43.422Z,1.25
2022-11-07T12:40:38.997Z,1.25
2022-11-07T12:43:47.842Z,1.42
2022-11-07T12:46:56.104Z,1.25
2022-11-07T12:49:50.176Z,1.30
2022-11-07T12:52:41.841Z,1.55
2022-11-07T12:55:42.328Z,1.67
2022-11-07T12:58:34.726Z,1.73
2022-11-07T13:01:04.376Z,1.40
2022-11-07T13:04:04.097Z,1.60
2022-11-07T13:07:08.415Z,1.80
2022-11-07T13:10:07.065Z,2.97
2022-11-07T13:13:01.231Z,6.70
2022-11-07T13:16:13.957Z,2.50
2022-11-07T13:18:42.798Z,2.20
2022-11-07T13:21:13.137Z,1.80
2022-11-07T13:23:44.490Z,1.40
2022-11-07T13:26:45.120Z,1.20
2022-11-07T13:29:27.758Z,1.30
2022-11-07T13:32:07.642Z,1.20
2022-11-07T13:35:09.510Z,1.20
2022-11-07T13:37:46.716Z,1.30
2022-11-07T13:40:35.669Z,2.83
2022-11-07T13:43:27.910Z,6.40
2022-11-07T13:46:03.393Z,2.60
2022-11-07T13:48:47.873Z,2.17
2022-11-07T13:51:50.902Z,2.30
2022-11-07T13:54:58.237Z,1.83
2022-11-07T13:57:54.903Z,1.43
2022-11-07T14:00:22.846Z,1.20
2022-11-07T14:03:05.446Z,1.67
2022-11-07T14:05:37.281Z,1.50
2022-11-07T14:08:25.659Z,1.73
2022-11-07T14:13:57.593Z,1.90
2022-11-07T14:16:31.663Z,2.07
2022-11-07T14:19:17.861Z,1.50
2022-11-07T14:21:47.992Z,1.70
2022-11-07T14:24:35.342Z,1.73
2022-11-07T14:27:20.313Z,2.30
2022-11-07T14:29:56.620Z,1.67
2022-11-07T14:32:31.873Z,2.10
2022-11-07T14:35:03.517Z,3.00
2022-11-07T14:37:34.447Z,2.80
2022-11-07T14:40:06.461Z,2.50
2022-11-07T14:45:46.895Z,2.10
2022-11-07T14:48:16.539Z,2.57
2022-11-07T14:50:48.595Z,5.43
2022-11-07T14:53:41.486Z,7.93
2022-11-07T14:56:33.995Z,5.10
2022-11-07T14:59:06.810Z,3.87
2022-11-07T15:01:35.126Z,2.70
2022-11-07T15:04:19.363Z,3.30
2022-11-07T15:09:43.118Z,3.23
2022-11-07T15:12:39.822Z,3.40
2022-11-07T15:15:38.370Z,4.97
2022-11-07T15:18:15.883Z,4.27
2022-11-07T15:20:44.298Z,4.20
2022-11-07T15:23:35.960Z,3.57
2022-11-07T15:26:13.344Z,3.30
2022-11-07T15:28:58.456Z,3.10
2022-11-07T15:31:28.900Z,3.23
2022-11-07T15:34:01.314Z,2.77
2022-11-07T15:39:16.064Z,3.53
2022-11-07T15:41:52.966Z,3.10
2022-11-07T15:44:24.205Z,3.00
2022-11-07T15:46:52.644Z,4.00
2022-11-07T15:49:31.308Z,5.10
2022-11-07T15:52:02.450Z,5.00
2022-11-07T15:54:32.521Z,5.53
2022-11-07T15:57:07.870Z,5.20
2022-11-07T15:59:44.691Z,4.10
2022-11-07T16:02:21.933Z,3.43
2022-11-07T16:04:59.935Z,3.07
2022-11-07T16:10:35.672Z,3.60
2022-11-07T16:16:02.615Z,4.80
2022-11-07T16:24:07.494Z,3.90
2022-11-07T16:26:38.807Z,3.87
2022-11-07T16:29:13.529Z,3.70
2022-11-07T16:31:43.345Z,3.30
2022-11-07T16:34:14.547Z,3.50
2022-11-07T16:36:46.298Z,3.90
2022-11-07T16:39:23.251Z,3.50
2022-11-07T16:41:54.800Z,5.20
2022-11-07T16:44:27.952Z,4.70
2022-11-07T16:46:58.382Z,4.47
2022-11-07T16:49:43.708Z,6.27
2022-11-07T16:52:23.106Z,7.63
2022-11-07T16:57:38.155Z,9.60
2022-11-07T17:03:02.348Z,15.50
2022-11-07T17:08:23.899Z,7.90
2022-11-07T17:10:53.967Z,8.43
2022-11-07T17:13:27.071Z,6.43
2022-11-07T17:15:57.126Z,6.03
2022-11-07T17:18:29.004Z,9.70
2022-11-07T17:21:00.135Z,10.30
2022-11-07T17:23:34.394Z,9.70
2022-11-07T17:26:03.778Z,6.10
2022-11-07T17:28:41.673Z,5.40
2022-11-07T17:31:10.582Z,6.00
2022-11-07T17:34:11.256Z,6.73
2022-11-07T17:37:01.072Z,5.23
2022-11-07T17:39:31.293Z,7.27
2022-11-07T17:42:02.615Z,6.33
2022-11-07T17:44:34.205Z,6.00
2022-11-07T17:47:38.631Z,6.37
2022-11-07T17:50:16.885Z,6.73
2022-11-07T17:52:48.451Z,7.23
2022-11-07T18:00:48.935Z,6.73
2022-11-07T18:03:26.637Z,6.07
2022-11-07T18:06:00.017Z,6.23
2022-11-07T18:08:51.106Z,6.33
2022-11-07T18:11:31.334Z,6.50
2022-11-07T18:14:24.975Z,6.63
2022-11-07T18:16:57.601Z,6.67
2022-11-07T18:19:27.080Z,6.60
2022-11-07T18:22:01.077Z,6.60
2022-11-07T18:24:30.852Z,7.50
2022-11-07T18:27:11.527Z,7.27
2022-11-07T18:29:50.922Z,7.97
2022-11-07T18:35:07.595Z,9.37
2022-11-07T18:37:52.397Z,9.60
2022-11-07T18:40:27.603Z,9.77
2022-11-07T18:45:54.065Z,11.40
2022-11-07T18:51:22.562Z,10.50
2022-11-07T18:53:57.419Z,10.87
2022-11-07T18:56:29.518Z,11.87
2022-11-07T19:01:57.635Z,11.00
2022-11-07T19:04:29.625Z,10.90
2022-11-07T19:07:09.513Z,11.07
2022-11-07T19:12:50.347Z,15.13
2022-11-07T19:15:28.794Z,23.53
2022-11-07T19:20:53.051Z,13.87
2022-11-07T19:26:12.043Z,11.67
2022-11-07T19:28:45.620Z,11.07
2022-11-07T19:31:18.594Z,11.20
2022-11-07T19:36:41.948Z,11.67
2022-11-07T19:39:22.862Z,11.60
2022-11-07T19:41:56.909Z,11.53
2022-11-07T19:44:29.546Z,11.60
2022-11-07T19:49:47.166Z,11.57
2022-11-07T19:52:17.231Z,11.90
2022-11-07T19:54:52.513Z,11.93
2022-11-07T19:57:32.738Z,14.20
2022-11-07T20:02:51.726Z,12.50
2022-11-07T20:05:33.884Z,11.53
2022-11-07T20:08:18.222Z,12.07
2022-11-07T20:11:00.684Z,11.17
2022-11-07T20:16:17.597Z,10.97
2022-11-07T20:18:52.519Z,11.00
2022-11-07T20:24:16.088Z,10.90
2022-11-07T20:26:50.413Z,10.70
2022-11-07T20:32:25.011Z,11.30
2022-11-07T20:34:56.282Z,11.77
2022-11-07T20:37:24.560Z,11.40
2022-11-07T20:42:46.434Z,12.77
2022-11-07T20:48:07.117Z,12.87
2022-11-07T20:50:43.419Z,12.13
2022-11-07T20:53:18.187Z,12.13
2022-11-07T20:55:50.757Z,12.30
2022-11-07T20:58:21.391Z,13.00
2022-11-07T21:01:05.243Z,12.97
2022-11-07T21:03:38.407Z,12.43
2022-11-07T21:06:23.985Z,12.37
2022-11-07T21:09:02.157Z,15.20
2022-11-07T21:11:30.866Z,17.97
2022-11-07T21:16:48.037Z,18.07
2022-11-07T21:19:19.996Z,14.67
2022-11-07T21:21:54.331Z,12.13
2022-11-07T21:27:11.617Z,9.97
2022-11-07T21:29:40.294Z,10.23
2022-11-07T21:32:09.531Z,9.90
2022-11-07T21:34:40.252Z,9.80
2022-11-07T21:37:09.256Z,9.77
2022-11-07T21:39:46.301Z,10.27
2022-11-07T21:42:24.155Z,9.90
2022-11-07T21:44:55.456Z,10.17
2022-11-07T21:47:26.242Z,9.70
2022-11-07T21:49:56.918Z,10.80
2022-11-07T21:52:27.174Z,10.57
2022-11-07T21:57:42.103Z,10.20
2022-11-07T22:00:15.768Z,10.23
2022-11-07T22:02:48.859Z,9.87
2022-11-07T22:05:19.700Z,9.97
2022-11-07T22:07:50.062Z,9.77
2022-11-07T22:10:20.476Z,9.60
2022-11-07T22:12:51.197Z,9.40
2022-11-07T22:18:05.103Z,8.80
2022-11-07T22:20:32.353Z,9.17
2022-11-07T22:23:06.160Z,9.10
2022-11-07T22:25:36.648Z,9.03
2022-11-07T22:28:12.980Z,8.50
2022-11-07T22:30:43.898Z,8.73
2022-11-07T22:33:15.245Z,8.40
2022-11-07T22:35:53.650Z,8.90
2022-11-07T22:41:15.575Z,8.50
2022-11-07T22:43:45.272Z,8.30
2022-11-07T22:46:16.689Z,8.20
2022-11-07T22:48:51.605Z,8.40
2022-11-07T22:51:31.073Z,8.70
2022-11-07T22:54:12.293Z,8.03
2022-11-07T22:56:42.040Z,8.20
2022-11-07T22:59:11.151Z,8.30
2022-11-07T23:01:51.226Z,8.10
2022-11-07T23:04:21.995Z,7.23
2022-11-07T23:06:51.745Z,7.90
2022-11-07T23:09:22.601Z,7.67
2022-11-07T23:11:52.118Z,7.90
2022-11-07T23:14:23.726Z,7.83
2022-11-07T23:16:55.807Z,8.77
2022-11-07T23:22:15.381Z,10.63
2022-11-07T23:24:45.081Z,10.93
2022-11-07T23:27:17.501Z,9.73
2022-11-07T23:29:52.029Z,9.50
2022-11-07T23:32:33.830Z,9.97
2022-11-07T23:35:04.520Z,11.67
2022-11-07T23:37:35.433Z,10.63
2022-11-07T23:40:14.628Z,9.17
2022-11-07T23:42:45.089Z,9.03
2022-11-07T23:45:53.320Z,8.50
2022-11-07T23:48:44.660Z,8.90
2022-11-07T23:51:18.523Z,8.63
2022-11-07T23:54:07.916Z,8.27
2022-11-07T23:56:39.089Z,7.20
2022-11-07T23:59:34.115Z,7.43
